createdAt,value
2023-04-13T00:01:32.816Z,3.38
2023-04-13T00:04:03.706Z,2.92
2023-04-13T00:06:30.634Z,1.52
2023-04-13T00:08:58.735Z,2.45
2023-04-13T00:11:27.791Z,1.33
2023-04-13T00:13:55.178Z,3.20
2023-04-13T00:16:22.314Z,2.63
2023-04-13T00:18:50.388Z,3.75
2023-04-13T00:21:17.200Z,4.65
2023-04-13T00:23:44.680Z,3.17
2023-04-13T00:26:11.305Z,3.50
2023-04-13T00:28:37.946Z,2.03
2023-04-13T00:31:04.590Z,2.90
2023-04-13T00:33:31.519Z,5.25
2023-04-13T00:35:58.025Z,4.15
2023-04-13T00:38:27.305Z,4.28
2023-04-13T00:40:55.665Z,3.35
2023-04-13T00:43:22.144Z,2.25
2023-04-13T00:45:48.808Z,3.53
2023-04-13T00:48:15.906Z,3.15
2023-04-13T00:50:42.505Z,2.15
2023-04-13T00:53:13.168Z,2.42
2023-04-13T00:55:42.173Z,2.67
2023-04-13T00:58:09.146Z,3.17
2023-04-13T01:00:39.036Z,2.13
2023-04-13T01:03:06.014Z,4.38
2023-04-13T01:05:51.737Z,1.70
2023-04-13T01:08:32.090Z,1.73
2023-04-13T01:11:07.461Z,2.67
2023-04-13T01:14:00.985Z,2.70
2023-04-13T01:16:31.116Z,3.03
2023-04-13T01:18:57.650Z,3.15
2023-04-13T01:21:26.205Z,5.40
2023-04-13T01:24:09.257Z,4.60
2023-04-13T01:26:55.080Z,2.75
2023-04-13T01:29:21.792Z,2.90
2023-04-13T01:31:48.920Z,3.58
2023-04-13T01:34:16.539Z,2.92
2023-04-13T01:36:43.688Z,2.35
2023-04-13T01:39:18.711Z,2.85
2023-04-13T01:41:45.225Z,2.13
2023-04-13T01:44:12.414Z,2.88
2023-04-13T01:46:41.698Z,4.63
2023-04-13T01:49:10.217Z,4.40
2023-04-13T01:51:37.314Z,3.33
2023-04-13T01:54:12.760Z,5.57
2023-04-13T01:56:40.494Z,2.63
2023-04-13T01:59:07.273Z,3.35
2023-04-13T02:01:33.794Z,4.97
2023-04-13T02:04:01.590Z,2.17
2023-04-13T02:06:28.486Z,4.97
2023-04-13T02:08:54.939Z,3.28
2023-04-13T02:11:22.035Z,2.55
2023-04-13T02:13:48.559Z,4.75
2023-04-13T02:16:15.801Z,4.25
2023-04-13T02:18:42.281Z,5.93
2023-04-13T02:21:09.667Z,3.85
2023-04-13T02:23:37.172Z,2.72
2023-04-13T02:26:04.548Z,3.95
2023-04-13T02:28:31.244Z,3.38
2023-04-13T02:30:59.843Z,6.30
2023-04-13T02:33:31.356Z,4.18
2023-04-13T02:36:02.535Z,4.55
2023-04-13T02:38:29.094Z,6.72
2023-04-13T02:41:00.161Z,4.57
2023-04-13T02:43:26.777Z,5.15
2023-04-13T02:45:53.439Z,6.50
2023-04-13T02:48:20.187Z,6.65
2023-04-13T02:50:47.169Z,4.70
2023-04-13T02:53:14.705Z,5.80
2023-04-13T02:55:41.823Z,3.75
2023-04-13T02:58:09.053Z,6.65
2023-04-13T03:00:35.620Z,4.22
2023-04-13T03:03:03.469Z,5.35
2023-04-13T03:05:33.424Z,3.70
2023-04-13T03:08:00.078Z,3.72
2023-04-13T03:10:26.570Z,5.28
2023-04-13T03:12:53.591Z,7.45
2023-04-13T03:15:20.078Z,5.15
2023-04-13T03:17:46.572Z,4.50
2023-04-13T03:20:16.060Z,3.30
2023-04-13T03:22:45.002Z,5.25
2023-04-13T03:25:11.536Z,5.68
2023-04-13T03:27:38.013Z,7.90
2023-04-13T03:30:04.925Z,4.88
2023-04-13T03:32:31.931Z,3.63
2023-04-13T03:34:58.853Z,9.23
2023-04-13T03:37:30.069Z,5.20
2023-04-13T03:39:57.923Z,4.60
2023-04-13T03:42:24.365Z,5.38
2023-04-13T03:44:50.883Z,6.60
2023-04-13T03:47:17.382Z,6.78
2023-04-13T03:49:43.810Z,7.47
2023-04-13T03:52:10.721Z,6.07
2023-04-13T03:54:37.194Z,6.03
2023-04-13T03:57:04.641Z,6.60
2023-04-13T03:59:31.128Z,4.75
2023-04-13T04:01:57.891Z,6.82
2023-04-13T04:04:24.384Z,6.53
2023-04-13T04:06:51.351Z,4.95
2023-04-13T04:09:17.804Z,3.80
2023-04-13T04:11:44.649Z,7.63
2023-04-13T04:14:11.143Z,5.72
2023-04-13T04:16:37.688Z,7.28
2023-04-13T04:19:04.134Z,7.30
2023-04-13T04:21:34.258Z,6.93
2023-04-13T04:24:02.032Z,6.40
2023-04-13T04:26:30.002Z,4.63
2023-04-13T04:29:02.399Z,6.45
2023-04-13T04:31:36.779Z,4.80
2023-04-13T04:34:04.043Z,5.90
2023-04-13T04:36:30.846Z,6.10
2023-04-13T04:39:01.935Z,6.30
2023-04-13T04:41:28.724Z,8.65
2023-04-13T04:43:56.732Z,5.82
2023-04-13T04:46:25.948Z,10.50
2023-04-13T04:48:54.188Z,5.72
2023-04-13T04:51:24.785Z,7.15
2023-04-13T04:53:52.891Z,9.60
2023-04-13T04:56:19.399Z,8.25
2023-04-13T04:58:46.241Z,8.77
2023-04-13T05:01:12.904Z,8.98
2023-04-13T05:03:39.393Z,6.15
2023-04-13T05:06:06.223Z,8.00
2023-04-13T05:08:33.053Z,6.65
2023-04-13T05:10:59.522Z,9.18
2023-04-13T05:13:25.985Z,8.85
2023-04-13T05:15:52.486Z,10.20
2023-04-13T05:18:18.918Z,8.40
2023-04-13T05:20:45.329Z,7.95
2023-04-13T05:23:12.489Z,8.48
2023-04-13T05:25:39.574Z,12.32
2023-04-13T05:28:06.083Z,10.27
2023-04-13T05:30:33.035Z,9.23
2023-04-13T05:33:02.070Z,9.18
2023-04-13T05:35:28.654Z,6.60
2023-04-13T05:37:57.026Z,10.93
2023-04-13T05:40:23.794Z,7.53
2023-04-13T05:42:50.192Z,8.85
2023-04-13T05:45:16.938Z,11.13
2023-04-13T05:47:45.210Z,10.75
2023-04-13T05:50:12.774Z,7.60
2023-04-13T05:52:39.539Z,7.45
2023-04-13T05:55:06.797Z,7.97
2023-04-13T05:57:33.306Z,11.73
2023-04-13T05:59:59.757Z,8.82
2023-04-13T06:02:26.634Z,8.45
2023-04-13T06:04:55.182Z,6.03
2023-04-13T06:07:22.436Z,6.80
2023-04-13T06:09:49.532Z,8.57
2023-04-13T06:12:16.133Z,7.32
2023-04-13T06:14:42.946Z,6.90
2023-04-13T06:17:09.480Z,9.82
2023-04-13T06:19:36.246Z,7.55
2023-04-13T06:22:02.787Z,7.93
2023-04-13T06:24:29.221Z,6.72
2023-04-13T06:26:56.457Z,6.55
2023-04-13T06:29:22.903Z,6.07
2023-04-13T06:31:49.337Z,5.35
2023-04-13T06:34:16.013Z,8.98
2023-04-13T06:36:42.991Z,6.85
2023-04-13T06:39:09.460Z,5.13
2023-04-13T06:41:36.529Z,6.88
2023-04-13T06:44:02.968Z,5.25
2023-04-13T06:46:29.421Z,5.55
2023-04-13T06:48:56.078Z,5.30
2023-04-13T06:51:22.534Z,3.53
2023-04-13T06:53:49.042Z,5.38
2023-04-13T06:56:15.480Z,3.83
2023-04-13T06:58:41.937Z,3.63
2023-04-13T07:01:08.515Z,5.13
2023-04-13T07:03:35.276Z,4.90
2023-04-13T07:06:01.881Z,4.50
2023-04-13T07:08:28.339Z,5.85
2023-04-13T07:10:55.591Z,4.00
2023-04-13T07:13:22.187Z,5.25
2023-04-13T07:15:48.621Z,6.65
2023-04-13T07:18:15.092Z,5.07
2023-04-13T07:20:41.577Z,9.65
2023-04-13T07:23:09.158Z,6.13
2023-04-13T07:25:35.752Z,8.25
2023-04-13T07:28:02.223Z,5.47
2023-04-13T07:30:28.705Z,3.47
2023-04-13T07:32:55.161Z,8.02
2023-04-13T07:35:22.102Z,7.53
2023-04-13T07:37:52.203Z,7.35
2023-04-13T07:40:19.463Z,10.45
2023-04-13T07:42:49.925Z,8.30
2023-04-13T07:45:17.929Z,10.18
2023-04-13T07:47:44.454Z,9.50
2023-04-13T07:50:11.823Z,5.28
2023-04-13T07:52:38.288Z,5.40
2023-04-13T07:55:06.060Z,8.48
2023-04-13T07:57:32.856Z,6.93
2023-04-13T07:59:59.408Z,7.03
2023-04-13T08:02:26.557Z,8.65
2023-04-13T08:04:53.127Z,6.90
2023-04-13T08:07:20.949Z,9.98
2023-04-13T08:09:49.488Z,11.77
2023-04-13T08:12:16.761Z,8.40
2023-04-13T08:14:44.937Z,6.95
2023-04-13T08:17:11.557Z,9.18
2023-04-13T08:19:38.036Z,7.55
2023-04-13T08:22:05.069Z,8.00
2023-04-13T08:24:31.618Z,10.63
2023-04-13T08:26:58.669Z,10.57
2023-04-13T08:29:25.361Z,11.35
2023-04-13T08:31:52.423Z,9.23
2023-04-13T08:34:19.006Z,9.98
2023-04-13T08:36:48.262Z,8.38
2023-04-13T08:39:14.848Z,6.57
2023-04-13T08:41:45.251Z,11.07
2023-04-13T08:44:12.455Z,9.52
2023-04-13T08:46:40.960Z,11.82
2023-04-13T08:49:10.615Z,12.10
2023-04-13T08:51:37.313Z,9.45
2023-04-13T08:54:03.923Z,9.98
2023-04-13T08:56:44.434Z,11.35
2023-04-13T08:59:11.915Z,9.23
2023-04-13T09:01:39.546Z,8.38
2023-04-13T09:04:11.622Z,9.68
2023-04-13T09:06:41.034Z,11.35
2023-04-13T09:09:14.460Z,7.60
2023-04-13T09:11:42.184Z,9.77
2023-04-13T09:14:09.998Z,11.75
2023-04-13T09:16:40.891Z,12.95
2023-04-13T09:19:08.596Z,9.35
2023-04-13T09:21:38.981Z,11.82
2023-04-13T09:24:06.804Z,12.10
2023-04-13T09:26:49.176Z,12.48
2023-04-13T09:29:17.677Z,9.43
2023-04-13T09:31:45.638Z,11.23
2023-04-13T09:34:12.670Z,10.43
2023-04-13T09:36:49.486Z,10.07
2023-04-13T09:39:27.884Z,10.43
2023-04-13T09:41:55.087Z,11.80
2023-04-13T09:44:28.198Z,11.10
2023-04-13T09:47:02.800Z,8.65
2023-04-13T09:49:42.926Z,10.98
2023-04-13T09:52:23.266Z,8.07
2023-04-13T09:54:54.243Z,6.35
2023-04-13T09:57:28.654Z,6.20
2023-04-13T09:59:57.648Z,7.80
2023-04-13T10:02:24.350Z,9.68
2023-04-13T10:04:51.596Z,8.65
2023-04-13T10:07:18.202Z,6.32
2023-04-13T10:09:44.679Z,8.93
2023-04-13T10:12:13.491Z,7.88
2023-04-13T10:14:43.190Z,8.27
2023-04-13T10:17:28.613Z,10.70
2023-04-13T10:20:00.100Z,9.02
2023-04-13T10:22:27.021Z,11.10
2023-04-13T10:24:53.454Z,9.45
2023-04-13T10:27:21.597Z,8.13
2023-04-13T10:29:48.471Z,9.38
2023-04-13T10:32:26.043Z,10.30
2023-04-13T10:34:53.389Z,8.80
2023-04-13T10:37:21.450Z,7.63
2023-04-13T10:39:48.207Z,8.15
2023-04-13T10:42:17.240Z,8.75
2023-04-13T10:44:47.968Z,8.05
2023-04-13T10:47:16.066Z,7.68
2023-04-13T10:49:43.803Z,5.30
2023-04-13T10:52:11.494Z,6.05
2023-04-13T10:54:39.434Z,8.98
2023-04-13T10:57:08.872Z,8.07
2023-04-13T10:59:55.645Z,7.15
2023-04-13T11:02:26.056Z,7.57
2023-04-13T11:04:53.344Z,8.73
2023-04-13T11:07:25.855Z,9.85
2023-04-13T11:10:02.947Z,8.55
2023-04-13T11:12:30.049Z,8.63
2023-04-13T11:14:56.616Z,10.82
2023-04-13T11:17:23.396Z,11.70
2023-04-13T11:19:51.249Z,8.75
2023-04-13T11:22:19.148Z,8.57
2023-04-13T11:24:46.287Z,8.30
2023-04-13T11:27:23.249Z,6.95
2023-04-13T11:30:06.365Z,7.35
2023-04-13T11:32:34.076Z,9.90
2023-04-13T11:35:17.279Z,8.02
2023-04-13T11:37:46.896Z,8.45
2023-04-13T11:40:17.409Z,8.57
2023-04-13T11:42:45.813Z,10.90
2023-04-13T11:45:14.760Z,4.72
2023-04-13T11:47:41.308Z,9.20
2023-04-13T11:50:08.126Z,7.07
2023-04-13T11:52:35.488Z,8.00
2023-04-13T11:55:19.092Z,6.40
2023-04-13T11:57:49.564Z,6.65
2023-04-13T12:00:24.314Z,8.48
2023-04-13T12:03:01.970Z,6.18
2023-04-13T12:05:31.266Z,6.18
2023-04-13T12:07:58.662Z,9.52
2023-04-13T12:10:38.223Z,7.78
2023-04-13T12:16:05.463Z,4.18
2023-04-13T12:18:43.612Z,6.22
2023-04-13T12:21:16.353Z,6.97
2023-04-13T12:23:57.789Z,6.82
2023-04-13T12:27:16.339Z,6.45
2023-04-13T12:29:22.212Z,6.07
2023-04-13T12:31:48.752Z,8.20
2023-04-13T12:34:15.200Z,4.78
2023-04-13T12:36:41.660Z,6.30
2023-04-13T12:39:08.122Z,7.63
2023-04-13T12:41:34.595Z,5.30
2023-04-13T12:44:01.313Z,5.70
2023-04-13T12:46:27.932Z,6.82
2023-04-13T12:48:54.914Z,5.15
2023-04-13T12:51:21.346Z,5.03
2023-04-13T12:53:47.867Z,4.20
2023-04-13T12:56:14.356Z,5.82
2023-04-13T12:58:40.865Z,7.10
2023-04-13T13:01:08.545Z,4.63
2023-04-13T13:03:36.879Z,6.22
2023-04-13T13:06:05.136Z,6.43
2023-04-13T13:08:34.089Z,6.50
2023-04-13T13:11:01.990Z,4.28
2023-04-13T13:13:28.386Z,6.75
2023-04-13T13:15:54.782Z,9.02
2023-04-13T13:18:21.162Z,9.18
2023-04-13T13:20:49.210Z,5.03
2023-04-13T13:23:15.727Z,5.82
2023-04-13T13:25:54.246Z,6.28
2023-04-13T13:28:30.942Z,6.28
2023-04-13T13:30:57.389Z,5.88
2023-04-13T13:33:23.912Z,4.40
2023-04-13T13:35:50.330Z,7.90
2023-04-13T13:38:16.759Z,6.25
2023-04-13T13:40:43.136Z,6.75
2023-04-13T13:43:10.867Z,6.95
2023-04-13T13:45:37.395Z,5.70
2023-04-13T13:48:04.063Z,7.88
2023-04-13T13:50:30.550Z,5.78
2023-04-13T13:53:03.972Z,6.53
2023-04-13T13:55:31.667Z,7.18
2023-04-13T13:57:58.173Z,5.40
2023-04-13T14:00:25.673Z,7.55
2023-04-13T14:02:52.353Z,5.93
2023-04-13T14:05:18.903Z,6.80
2023-04-13T14:07:45.816Z,9.25
2023-04-13T14:10:13.117Z,8.85
2023-04-13T14:12:41.583Z,8.27
2023-04-13T14:15:09.208Z,6.57
2023-04-13T14:17:36.935Z,5.28
2023-04-13T14:20:09.056Z,7.68
2023-04-13T14:22:36.424Z,7.07
2023-04-13T14:25:03.512Z,5.70
2023-04-13T14:27:30.076Z,5.90
2023-04-13T14:29:56.823Z,7.35
2023-04-13T14:32:23.242Z,6.60
2023-04-13T14:34:49.679Z,6.10
2023-04-13T14:37:16.977Z,6.25
2023-04-13T14:39:43.428Z,7.05
2023-04-13T14:42:11.730Z,5.47
2023-04-13T14:44:38.360Z,4.85
2023-04-13T14:47:08.759Z,6.53
2023-04-13T14:49:36.111Z,5.63
2023-04-13T14:52:03.372Z,5.80
2023-04-13T14:54:29.784Z,6.47
2023-04-13T14:56:56.159Z,6.43
2023-04-13T14:59:23.968Z,6.55
2023-04-13T15:01:50.842Z,5.43
2023-04-13T15:04:18.194Z,4.82
2023-04-13T15:06:47.439Z,6.38
2023-04-13T15:09:13.923Z,4.65
2023-04-13T15:11:40.486Z,5.03
2023-04-13T15:14:07.183Z,8.88
2023-04-13T15:16:33.657Z,6.55
2023-04-13T15:19:00.451Z,7.28
2023-04-13T15:21:27.657Z,6.07
2023-04-13T15:23:54.132Z,5.03
2023-04-13T15:26:20.754Z,6.38
2023-04-13T15:28:47.328Z,7.05
2023-04-13T15:31:13.774Z,6.32
2023-04-13T15:33:40.187Z,6.63
2023-04-13T15:36:07.054Z,6.47
2023-04-13T15:38:33.513Z,7.95
2023-04-13T15:40:59.923Z,10.25
2023-04-13T15:43:26.464Z,8.65
2023-04-13T15:45:52.886Z,6.07
2023-04-13T15:48:20.319Z,5.25
2023-04-13T15:50:46.730Z,6.68
2023-04-13T15:53:13.150Z,5.60
2023-04-13T15:55:40.229Z,6.32
2023-04-13T15:58:07.567Z,5.75
2023-04-13T16:00:34.032Z,5.65
2023-04-13T16:03:00.659Z,5.45
2023-04-13T16:05:27.291Z,4.30
2023-04-13T16:07:54.891Z,5.47
2023-04-13T16:10:21.484Z,5.18
2023-04-13T16:12:49.974Z,7.10
2023-04-13T16:15:16.628Z,5.10
2023-04-13T16:17:47.728Z,7.22
2023-04-13T16:20:14.294Z,4.00
2023-04-13T16:22:41.680Z,8.32
2023-04-13T16:25:11.656Z,6.25
2023-04-13T16:27:38.622Z,5.50
2023-04-13T16:30:05.775Z,7.45
2023-04-13T16:32:32.202Z,5.72
2023-04-13T16:34:58.683Z,6.68
2023-04-13T16:37:25.073Z,4.75
2023-04-13T16:39:51.496Z,5.72
2023-04-13T16:42:17.984Z,4.80
2023-04-13T16:44:45.222Z,8.30
2023-04-13T16:47:11.911Z,6.25
2023-04-13T16:49:38.400Z,3.53
2023-04-13T16:52:04.806Z,4.25
2023-04-13T16:54:31.339Z,4.53
2023-04-13T16:56:58.049Z,3.33
2023-04-13T16:59:24.460Z,5.75
2023-04-13T17:01:50.934Z,6.10
2023-04-13T17:04:17.852Z,4.45
2023-04-13T17:06:47.209Z,8.75
2023-04-13T17:09:13.648Z,4.72
2023-04-13T17:11:40.196Z,5.45
2023-04-13T17:14:07.042Z,6.57
2023-04-13T17:16:33.507Z,8.65
2023-04-13T17:19:00.171Z,6.40
2023-04-13T17:21:27.309Z,5.85
2023-04-13T17:23:53.687Z,6.45
2023-04-13T17:26:20.129Z,5.85
2023-04-13T17:28:46.663Z,7.85
2023-04-13T17:31:13.289Z,6.85
2023-04-13T17:33:39.746Z,5.63
2023-04-13T17:36:06.414Z,6.90
2023-04-13T17:38:32.833Z,8.00
2023-04-13T17:40:59.321Z,7.57
2023-04-13T17:43:25.894Z,8.00
2023-04-13T17:45:52.297Z,6.95
2023-04-13T17:48:18.760Z,6.40
2023-04-13T17:50:45.375Z,7.03
2023-04-13T17:53:11.863Z,6.32
2023-04-13T17:55:38.592Z,7.43
2023-04-13T17:58:05.412Z,6.05
2023-04-13T18:00:31.881Z,4.97
2023-04-13T18:02:58.539Z,6.10
2023-04-13T18:05:25.757Z,8.15
2023-04-13T18:07:52.226Z,5.85
2023-04-13T18:10:18.660Z,6.88
2023-04-13T18:12:45.864Z,6.13
2023-04-13T18:15:12.350Z,3.95
2023-04-13T18:17:39.284Z,5.90
2023-04-13T18:20:06.398Z,4.78
2023-04-13T18:22:33.045Z,4.65
2023-04-13T18:24:59.610Z,3.53
2023-04-13T18:27:27.547Z,3.35
2023-04-13T18:29:54.885Z,3.95
2023-04-13T18:32:21.935Z,8.10
2023-04-13T18:34:49.239Z,7.43
2023-04-13T18:37:15.879Z,8.80
2023-04-13T18:39:42.522Z,5.47
2023-04-13T18:42:08.990Z,4.65
2023-04-13T18:44:35.567Z,7.00
2023-04-13T18:47:02.094Z,6.15
2023-04-13T18:49:28.633Z,8.10
2023-04-13T18:51:55.166Z,6.32
2023-04-13T18:54:21.679Z,6.18
2023-04-13T18:56:48.236Z,5.47
2023-04-13T18:59:14.631Z,5.35
2023-04-13T19:01:41.116Z,5.60
2023-04-13T19:04:07.666Z,7.97
2023-04-13T19:06:34.818Z,8.38
2023-04-13T19:09:01.604Z,9.05
2023-04-13T19:11:28.029Z,7.78
2023-04-13T19:13:54.450Z,9.40
2023-04-13T19:16:21.778Z,8.55
2023-04-13T19:18:48.287Z,8.70
2023-04-13T19:21:14.744Z,8.18
2023-04-13T19:23:41.211Z,9.98
2023-04-13T19:26:07.674Z,6.82
2023-04-13T19:28:34.098Z,9.82
2023-04-13T19:31:00.644Z,7.80
2023-04-13T19:33:27.040Z,8.07
2023-04-13T19:35:53.638Z,16.42
2023-04-13T19:38:20.066Z,14.85
2023-04-13T19:40:46.518Z,13.02
2023-04-13T19:43:13.014Z,19.13
2023-04-13T19:45:40.705Z,18.35
2023-04-13T19:48:07.161Z,13.98
2023-04-13T19:50:33.610Z,16.95
2023-04-13T19:53:00.130Z,15.40
2023-04-13T19:55:27.352Z,11.75
2023-04-13T19:57:54.248Z,9.45
2023-04-13T20:00:20.979Z,7.97
2023-04-13T20:02:49.774Z,7.65
2023-04-13T20:05:17.663Z,7.30
2023-04-13T20:07:44.133Z,8.07
2023-04-13T20:10:12.021Z,7.88
2023-04-13T20:12:38.633Z,5.88
2023-04-13T20:15:06.201Z,5.00
2023-04-13T20:17:32.669Z,5.65
2023-04-13T20:20:00.166Z,5.57
2023-04-13T20:22:26.647Z,6.55
2023-04-13T20:24:53.034Z,4.22
2023-04-13T20:27:21.446Z,5.50
2023-04-13T20:29:48.856Z,6.85
2023-04-13T20:32:15.824Z,8.80
2023-04-13T20:34:43.222Z,7.57
2023-04-13T20:37:09.666Z,7.63
2023-04-13T20:39:38.800Z,7.25
2023-04-13T20:42:05.949Z,6.03
2023-04-13T20:44:38.122Z,9.13
2023-04-13T20:47:05.147Z,8.70
2023-04-13T20:49:31.702Z,8.93
2023-04-13T20:51:58.187Z,5.60
2023-04-13T20:54:24.678Z,5.88
2023-04-13T20:56:51.154Z,8.20
2023-04-13T20:59:18.362Z,8.00
2023-04-13T21:01:45.414Z,9.80
2023-04-13T21:04:12.114Z,5.15
2023-04-13T21:06:38.588Z,4.25
2023-04-13T21:09:05.509Z,5.30
2023-04-13T21:11:31.922Z,4.63
2023-04-13T21:13:58.638Z,4.07
2023-04-13T21:16:26.121Z,8.68
2023-04-13T21:18:53.781Z,8.55
2023-04-13T21:21:23.305Z,5.68
2023-04-13T21:23:53.220Z,6.28
2023-04-13T21:26:20.465Z,5.68
2023-04-13T21:28:46.937Z,5.53
2023-04-13T21:31:13.401Z,4.22
2023-04-13T21:33:39.885Z,5.00
2023-04-13T21:38:41.244Z,5.20
2023-04-13T21:41:17.316Z,7.18
2023-04-13T21:43:44.000Z,4.40
2023-04-13T21:46:17.258Z,5.90
2023-04-13T21:48:43.748Z,5.25
2023-04-13T21:51:10.189Z,5.53
2023-04-13T21:53:36.816Z,5.00
2023-04-13T21:56:05.304Z,5.45
2023-04-13T21:58:45.881Z,5.80
2023-04-13T22:01:13.724Z,4.63
2023-04-13T22:03:42.531Z,3.72
2023-04-13T22:06:10.654Z,5.20
2023-04-13T22:08:37.563Z,3.95
2023-04-13T22:11:04.248Z,3.97
2023-04-13T22:13:31.031Z,3.80
2023-04-13T22:15:57.571Z,4.05
2023-04-13T22:18:24.622Z,4.57
2023-04-13T22:20:51.014Z,4.70
2023-04-13T22:23:17.583Z,6.70
2023-04-13T22:25:51.949Z,3.78
2023-04-13T22:28:18.398Z,3.15
2023-04-13T22:30:44.876Z,6.07
2023-04-13T22:33:11.691Z,4.43
2023-04-13T22:35:38.137Z,4.75
2023-04-13T22:38:04.614Z,3.45
2023-04-13T22:40:31.062Z,3.80
2023-04-13T22:42:57.799Z,6.00
2023-04-13T22:45:24.781Z,3.50
2023-04-13T22:47:54.271Z,4.22
2023-04-13T22:50:21.291Z,2.65
2023-04-13T22:52:47.726Z,4.88
2023-04-13T22:55:15.596Z,4.70
2023-04-13T22:57:42.045Z,3.25
2023-04-13T23:00:09.028Z,6.53
2023-04-13T23:02:35.632Z,4.13
2023-04-13T23:05:07.325Z,4.00
2023-04-13T23:07:33.878Z,3.53
2023-04-13T23:10:00.387Z,3.45
2023-04-13T23:12:27.078Z,3.55
2023-04-13T23:14:53.508Z,4.00
2023-04-13T23:17:19.929Z,4.03
2023-04-13T23:19:46.383Z,5.65
2023-04-13T23:22:12.784Z,3.70
2023-04-13T23:24:39.217Z,4.20
2023-04-13T23:27:05.678Z,3.20
2023-04-13T23:29:32.355Z,3.53
2023-04-13T23:31:58.857Z,4.68
2023-04-13T23:34:25.547Z,2.95
2023-04-13T23:36:51.959Z,3.70
2023-04-13T23:39:18.501Z,4.25
2023-04-13T23:41:44.932Z,2.35
2023-04-13T23:44:12.042Z,3.75
2023-04-13T23:46:38.620Z,3.47
2023-04-13T23:49:05.073Z,4.90
2023-04-13T23:51:31.519Z,4.57
2023-04-13T23:53:57.925Z,6.57
2023-04-13T23:56:24.381Z,4.05
2023-04-13T23:58:50.826Z,3.60
